sensor_id;sensor_type;location;lat;lon;timestamp;temperature;humidity
22706;DHT22;11520;51.198;4.468;2022-11-02T00:01:29;14.20;99.90
22706;DHT22;11520;51.198;4.468;2022-11-02T00:03:58;14.20;99.90
22706;DHT22;11520;51.198;4.468;2022-11-02T00:06:24;14.20;99.90
22706;DHT22;11520;51.198;4.468;2022-11-02T00:08:52;14.10;99.90
22706;DHT22;11520;51.198;4.468;2022-11-02T00:11:36;14.10;99.90
22706;DHT22;11520;51.198;4.468;2022-11-02T00:14:02;14.00;99.90
22706;DHT22;11520;51.198;4.468;2022-11-02T00:16:32;13.90;99.90
22706;DHT22;11520;51.198;4.468;2022-11-02T00:18:59;13.80;99.90
22706;DHT22;11520;51.198;4.468;2022-11-02T00:21:25;13.80;99.90
22706;DHT22;11520;51.198;4.468;2022-11-02T00:23:58;13.70;99.90
22706;DHT22;11520;51.198;4.468;2022-11-02T00:26:26;13.70;99.90
22706;DHT22;11520;51.198;4.468;2022-11-02T00:28:53;13.60;99.90
22706;DHT22;11520;51.198;4.468;2022-11-02T00:31:19;13.60;99.90
22706;DHT22;11520;51.198;4.468;2022-11-02T00:33:46;13.50;99.90
22706;DHT22;11520;51.198;4.468;2022-11-02T00:36:12;13.50;99.90
22706;DHT22;11520;51.198;4.468;2022-11-02T00:38:39;13.50;99.90
22706;DHT22;11520;51.198;4.468;2022-11-02T00:41:05;13.40;99.90
22706;DHT22;11520;51.198;4.468;2022-11-02T00:43:33;13.40;99.90
22706;DHT22;11520;51.198;4.468;2022-11-02T00:45:59;13.40;99.90
22706;DHT22;11520;51.198;4.468;2022-11-02T00:48:27;13.30;99.90
22706;DHT22;11520;51.198;4.468;2022-11-02T00:50:59;13.30;99.90
22706;DHT22;11520;51.198;4.468;2022-11-02T00:53:25;13.30;99.90
22706;DHT22;11520;51.198;4.468;2022-11-02T00:55:58;13.30;99.90
22706;DHT22;11520;51.198;4.468;2022-11-02T00:58:31;13.20;99.90
22706;DHT22;11520;51.198;4.468;2022-11-02T01:00:57;13.20;99.90
22706;DHT22;11520;51.198;4.468;2022-11-02T01:03:23;13.20;99.90
22706;DHT22;11520;51.198;4.468;2022-11-02T01:05:48;13.20;99.90
22706;DHT22;11520;51.198;4.468;2022-11-02T01:08:20;13.20;99.90
22706;DHT22;11520;51.198;4.468;2022-11-02T01:10:47;13.10;99.90
22706;DHT22;11520;51.198;4.468;2022-11-02T01:13:14;13.20;99.90
22706;DHT22;11520;51.198;4.468;2022-11-02T01:15:41;13.20;99.90
22706;DHT22;11520;51.198;4.468;2022-11-02T01:18:07;13.20;99.90
22706;DHT22;11520;51.198;4.468;2022-11-02T01:20:33;13.20;99.90
22706;DHT22;11520;51.198;4.468;2022-11-02T01:22:59;13.30;99.90
22706;DHT22;11520;51.198;4.468;2022-11-02T01:25:27;13.30;99.90
22706;DHT22;11520;51.198;4.468;2022-11-02T01:27:53;13.20;99.90
22706;DHT22;11520;51.198;4.468;2022-11-02T01:30:20;13.20;99.90
22706;DHT22;11520;51.198;4.468;2022-11-02T01:32:46;13.20;99.90
22706;DHT22;11520;51.198;4.468;2022-11-02T01:35:11;13.20;99.90
22706;DHT22;11520;51.198;4.468;2022-11-02T01:37:37;13.10;99.90
22706;DHT22;11520;51.198;4.468;2022-11-02T01:40:03;13.10;99.90
22706;DHT22;11520;51.198;4.468;2022-11-02T01:42:29;13.10;99.90
22706;DHT22;11520;51.198;4.468;2022-11-02T01:44:56;13.20;99.90
22706;DHT22;11520;51.198;4.468;2022-11-02T01:47:41;13.20;99.90
22706;DHT22;11520;51.198;4.468;2022-11-02T01:50:19;13.20;99.90
22706;DHT22;11520;51.198;4.468;2022-11-02T01:52:46;13.30;99.90
22706;DHT22;11520;51.198;4.468;2022-11-02T01:55:29;13.30;99.90
22706;DHT22;11520;51.198;4.468;2022-11-02T01:57:59;13.30;99.90
22706;DHT22;11520;51.198;4.468;2022-11-02T02:00:26;13.30;99.90
22706;DHT22;11520;51.198;4.468;2022-11-02T02:03:00;13.30;99.90
22706;DHT22;11520;51.198;4.468;2022-11-02T02:05:29;13.30;99.90
22706;DHT22;11520;51.198;4.468;2022-11-02T02:07:57;13.30;99.90
22706;DHT22;11520;51.198;4.468;2022-11-02T02:10:25;13.30;99.90
22706;DHT22;11520;51.198;4.468;2022-11-02T02:12:51;13.30;99.90
22706;DHT22;11520;51.198;4.468;2022-11-02T02:15:17;13.20;99.90
22706;DHT22;11520;51.198;4.468;2022-11-02T02:17:53;13.20;99.90
22706;DHT22;11520;51.198;4.468;2022-11-02T02:26:30;13.30;99.90
22706;DHT22;11520;51.198;4.468;2022-11-02T02:29:36;13.20;99.90
22706;DHT22;11520;51.198;4.468;2022-11-02T02:32:14;13.10;99.90
22706;DHT22;11520;51.198;4.468;2022-11-02T02:35:05;13.00;99.90
22706;DHT22;11520;51.198;4.468;2022-11-02T02:37:41;13.00;99.90
22706;DHT22;11520;51.198;4.468;2022-11-02T02:40:10;13.00;99.90
22706;DHT22;11520;51.198;4.468;2022-11-02T02:42:45;13.00;99.90
22706;DHT22;11520;51.198;4.468;2022-11-02T02:45:18;13.00;99.90
22706;DHT22;11520;51.198;4.468;2022-11-02T02:47:53;12.90;99.90
22706;DHT22;11520;51.198;4.468;2022-11-02T02:50:33;12.90;99.90
22706;DHT22;11520;51.198;4.468;2022-11-02T02:53:01;12.90;99.90
22706;DHT22;11520;51.198;4.468;2022-11-02T02:55:44;13.00;99.90
22706;DHT22;11520;51.198;4.468;2022-11-02T02:58:22;13.00;99.90
22706;DHT22;11520;51.198;4.468;2022-11-02T03:00:48;13.00;99.90
22706;DHT22;11520;51.198;4.468;2022-11-02T03:03:24;13.10;99.90
22706;DHT22;11520;51.198;4.468;2022-11-02T03:08:41;13.20;99.90
22706;DHT22;11520;51.198;4.468;2022-11-02T03:11:18;13.20;99.90
22706;DHT22;11520;51.198;4.468;2022-11-02T03:28:17;12.90;99.90
22706;DHT22;11520;51.198;4.468;2022-11-02T03:30:58;12.80;99.90
22706;DHT22;11520;51.198;4.468;2022-11-02T03:33:33;12.80;99.90
22706;DHT22;11520;51.198;4.468;2022-11-02T03:36:13;12.90;99.90
22706;DHT22;11520;51.198;4.468;2022-11-02T03:41:12;12.90;99.90
22706;DHT22;11520;51.198;4.468;2022-11-02T03:43:40;12.80;99.90
22706;DHT22;11520;51.198;4.468;2022-11-02T03:46:07;12.80;99.90
22706;DHT22;11520;51.198;4.468;2022-11-02T03:48:43;12.80;99.90
22706;DHT22;11520;51.198;4.468;2022-11-02T03:51:16;12.70;99.90
22706;DHT22;11520;51.198;4.468;2022-11-02T03:53:48;12.70;99.90
22706;DHT22;11520;51.198;4.468;2022-11-02T03:56:26;12.70;99.90
22706;DHT22;11520;51.198;4.468;2022-11-02T03:58:53;12.70;99.90
22706;DHT22;11520;51.198;4.468;2022-11-02T04:01:20;12.80;99.90
22706;DHT22;11520;51.198;4.468;2022-11-02T04:03:46;12.80;99.90
22706;DHT22;11520;51.198;4.468;2022-11-02T04:06:13;12.70;99.90
22706;DHT22;11520;51.198;4.468;2022-11-02T04:08:42;12.70;99.90
22706;DHT22;11520;51.198;4.468;2022-11-02T04:11:09;12.60;99.90
22706;DHT22;11520;51.198;4.468;2022-11-02T04:13:53;12.60;99.90
22706;DHT22;11520;51.198;4.468;2022-11-02T04:16:38;12.60;99.90
22706;DHT22;11520;51.198;4.468;2022-11-02T04:19:04;12.50;99.90
22706;DHT22;11520;51.198;4.468;2022-11-02T04:21:49;12.50;99.90
22706;DHT22;11520;51.198;4.468;2022-11-02T04:24:34;12.50;99.90
22706;DHT22;11520;51.198;4.468;2022-11-02T04:27:20;12.40;99.90
22706;DHT22;11520;51.198;4.468;2022-11-02T04:29:48;12.30;99.90
22706;DHT22;11520;51.198;4.468;2022-11-02T04:32:17;12.30;99.90
22706;DHT22;11520;51.198;4.468;2022-11-02T04:35:04;12.30;99.90
22706;DHT22;11520;51.198;4.468;2022-11-02T04:37:30;12.20;99.90
22706;DHT22;11520;51.198;4.468;2022-11-02T04:40:20;12.20;99.90
22706;DHT22;11520;51.198;4.468;2022-11-02T04:42:48;12.20;99.90
22706;DHT22;11520;51.198;4.468;2022-11-02T04:45:15;12.20;99.90
22706;DHT22;11520;51.198;4.468;2022-11-02T04:47:40;12.10;99.90
22706;DHT22;11520;51.198;4.468;2022-11-02T04:50:06;12.10;99.90
22706;DHT22;11520;51.198;4.468;2022-11-02T04:52:32;12.10;99.90
22706;DHT22;11520;51.198;4.468;2022-11-02T04:54:59;12.10;99.90
22706;DHT22;11520;51.198;4.468;2022-11-02T04:57:25;12.10;99.90
22706;DHT22;11520;51.198;4.468;2022-11-02T04:59:51;12.10;99.90
22706;DHT22;11520;51.198;4.468;2022-11-02T05:02:17;12.00;99.90
22706;DHT22;11520;51.198;4.468;2022-11-02T05:04:42;12.00;99.90
22706;DHT22;11520;51.198;4.468;2022-11-02T05:07:10;12.00;99.90
22706;DHT22;11520;51.198;4.468;2022-11-02T05:09:35;12.00;99.90
22706;DHT22;11520;51.198;4.468;2022-11-02T05:12:03;11.90;99.90
22706;DHT22;11520;51.198;4.468;2022-11-02T05:14:31;11.90;99.90
22706;DHT22;11520;51.198;4.468;2022-11-02T05:16:57;11.90;99.90
22706;DHT22;11520;51.198;4.468;2022-11-02T05:19:24;11.80;99.90
22706;DHT22;11520;51.198;4.468;2022-11-02T05:21:51;11.80;99.90
22706;DHT22;11520;51.198;4.468;2022-11-02T05:24:16;11.90;99.90
22706;DHT22;11520;51.198;4.468;2022-11-02T05:26:42;11.80;99.90
22706;DHT22;11520;51.198;4.468;2022-11-02T05:29:08;11.80;99.90
22706;DHT22;11520;51.198;4.468;2022-11-02T05:31:34;11.80;99.90
22706;DHT22;11520;51.198;4.468;2022-11-02T05:34:01;11.80;99.90
22706;DHT22;11520;51.198;4.468;2022-11-02T05:36:27;11.70;99.90
22706;DHT22;11520;51.198;4.468;2022-11-02T05:42:31;11.70;99.90
22706;DHT22;11520;51.198;4.468;2022-11-02T05:44:59;11.70;99.90
22706;DHT22;11520;51.198;4.468;2022-11-02T05:47:26;11.70;99.90
22706;DHT22;11520;51.198;4.468;2022-11-02T05:49:52;11.70;99.90
22706;DHT22;11520;51.198;4.468;2022-11-02T05:52:20;11.60;99.90
22706;DHT22;11520;51.198;4.468;2022-11-02T05:54:48;11.60;99.90
22706;DHT22;11520;51.198;4.468;2022-11-02T05:57:14;11.60;99.90
22706;DHT22;11520;51.198;4.468;2022-11-02T05:59:41;11.60;99.90
22706;DHT22;11520;51.198;4.468;2022-11-02T06:02:07;11.60;99.90
22706;DHT22;11520;51.198;4.468;2022-11-02T06:04:34;11.50;99.90
22706;DHT22;11520;51.198;4.468;2022-11-02T06:07:00;11.60;99.90
22706;DHT22;11520;51.198;4.468;2022-11-02T06:09:25;11.50;99.90
22706;DHT22;11520;51.198;4.468;2022-11-02T06:11:52;11.40;99.90
22706;DHT22;11520;51.198;4.468;2022-11-02T06:14:17;11.40;99.90
22706;DHT22;11520;51.198;4.468;2022-11-02T06:16:44;11.40;99.90
22706;DHT22;11520;51.198;4.468;2022-11-02T06:19:10;11.40;99.90
22706;DHT22;11520;51.198;4.468;2022-11-02T06:21:35;11.40;99.90
22706;DHT22;11520;51.198;4.468;2022-11-02T06:24:01;11.40;99.90
22706;DHT22;11520;51.198;4.468;2022-11-02T06:26:27;11.40;99.90
22706;DHT22;11520;51.198;4.468;2022-11-02T06:28:55;11.40;99.90
22706;DHT22;11520;51.198;4.468;2022-11-02T06:31:20;11.40;99.90
22706;DHT22;11520;51.198;4.468;2022-11-02T06:33:46;11.40;99.90
22706;DHT22;11520;51.198;4.468;2022-11-02T06:36:12;11.40;99.90
22706;DHT22;11520;51.198;4.468;2022-11-02T06:38:37;11.40;99.90
22706;DHT22;11520;51.198;4.468;2022-11-02T06:41:03;11.40;99.90
22706;DHT22;11520;51.198;4.468;2022-11-02T06:43:33;11.40;99.90
22706;DHT22;11520;51.198;4.468;2022-11-02T06:45:59;11.40;99.90
22706;DHT22;11520;51.198;4.468;2022-11-02T06:48:26;11.40;99.90
22706;DHT22;11520;51.198;4.468;2022-11-02T06:50:52;11.50;99.90
22706;DHT22;11520;51.198;4.468;2022-11-02T06:53:18;11.40;99.90
22706;DHT22;11520;51.198;4.468;2022-11-02T06:55:44;11.40;99.90
22706;DHT22;11520;51.198;4.468;2022-11-02T06:58:09;11.40;99.90
22706;DHT22;11520;51.198;4.468;2022-11-02T07:00:35;11.40;99.90
22706;DHT22;11520;51.198;4.468;2022-11-02T07:03:03;11.30;99.90
22706;DHT22;11520;51.198;4.468;2022-11-02T07:05:30;11.40;99.90
22706;DHT22;11520;51.198;4.468;2022-11-02T07:07:56;11.30;99.90
22706;DHT22;11520;51.198;4.468;2022-11-02T07:10:23;11.40;99.90
22706;DHT22;11520;51.198;4.468;2022-11-02T07:12:54;11.40;99.90
22706;DHT22;11520;51.198;4.468;2022-11-02T07:15:21;11.50;99.90
22706;DHT22;11520;51.198;4.468;2022-11-02T07:17:47;11.50;99.90
22706;DHT22;11520;51.198;4.468;2022-11-02T07:20:14;11.60;99.90
22706;DHT22;11520;51.198;4.468;2022-11-02T07:22:41;11.60;99.90
22706;DHT22;11520;51.198;4.468;2022-11-02T07:25:07;11.50;99.90
22706;DHT22;11520;51.198;4.468;2022-11-02T07:27:39;11.50;99.90
22706;DHT22;11520;51.198;4.468;2022-11-02T07:30:06;11.50;99.90
22706;DHT22;11520;51.198;4.468;2022-11-02T07:32:38;11.60;99.90
22706;DHT22;11520;51.198;4.468;2022-11-02T07:35:05;11.70;99.90
22706;DHT22;11520;51.198;4.468;2022-11-02T07:37:31;11.70;99.90
22706;DHT22;11520;51.198;4.468;2022-11-02T07:39:56;11.80;99.90
22706;DHT22;11520;51.198;4.468;2022-11-02T07:42:22;11.80;99.90
22706;DHT22;11520;51.198;4.468;2022-11-02T07:44:48;11.80;99.90
22706;DHT22;11520;51.198;4.468;2022-11-02T07:47:14;11.90;99.90
22706;DHT22;11520;51.198;4.468;2022-11-02T07:49:39;12.00;99.90
22706;DHT22;11520;51.198;4.468;2022-11-02T07:52:05;12.00;99.90
22706;DHT22;11520;51.198;4.468;2022-11-02T07:54:31;12.00;99.90
22706;DHT22;11520;51.198;4.468;2022-11-02T07:56:56;12.10;99.90
22706;DHT22;11520;51.198;4.468;2022-11-02T07:59:22;12.10;99.90
22706;DHT22;11520;51.198;4.468;2022-11-02T08:01:49;12.20;99.90
22706;DHT22;11520;51.198;4.468;2022-11-02T08:04:14;12.30;99.90
22706;DHT22;11520;51.198;4.468;2022-11-02T08:06:40;12.40;99.90
22706;DHT22;11520;51.198;4.468;2022-11-02T08:09:05;12.60;99.90
22706;DHT22;11520;51.198;4.468;2022-11-02T08:11:31;12.80;99.90
22706;DHT22;11520;51.198;4.468;2022-11-02T08:13:58;13.30;99.90
22706;DHT22;11520;51.198;4.468;2022-11-02T08:16:27;13.90;99.90
22706;DHT22;11520;51.198;4.468;2022-11-02T08:18:52;14.50;99.90
22706;DHT22;11520;51.198;4.468;2022-11-02T08:21:19;15.00;99.90
22706;DHT22;11520;51.198;4.468;2022-11-02T08:23:45;15.20;99.90
22706;DHT22;11520;51.198;4.468;2022-11-02T08:26:11;15.80;99.90
22706;DHT22;11520;51.198;4.468;2022-11-02T08:28:37;16.30;99.90
22706;DHT22;11520;51.198;4.468;2022-11-02T08:31:05;16.30;99.90
22706;DHT22;11520;51.198;4.468;2022-11-02T08:33:34;16.50;99.90
22706;DHT22;11520;51.198;4.468;2022-11-02T08:36:01;16.60;99.90
22706;DHT22;11520;51.198;4.468;2022-11-02T08:38:29;16.20;99.90
22706;DHT22;11520;51.198;4.468;2022-11-02T08:40:55;15.90;99.90
22706;DHT22;11520;51.198;4.468;2022-11-02T08:43:20;15.60;99.90
22706;DHT22;11520;51.198;4.468;2022-11-02T08:45:46;15.20;99.90
22706;DHT22;11520;51.198;4.468;2022-11-02T08:48:13;14.90;99.90
22706;DHT22;11520;51.198;4.468;2022-11-02T08:50:39;14.80;99.90
22706;DHT22;11520;51.198;4.468;2022-11-02T08:53:06;14.60;99.90
22706;DHT22;11520;51.198;4.468;2022-11-02T08:55:38;14.50;99.90
22706;DHT22;11520;51.198;4.468;2022-11-02T08:58:03;14.30;99.90
22706;DHT22;11520;51.198;4.468;2022-11-02T09:00:31;14.30;99.90
22706;DHT22;11520;51.198;4.468;2022-11-02T09:03:11;14.30;99.90
22706;DHT22;11520;51.198;4.468;2022-11-02T09:05:39;14.30;99.90
22706;DHT22;11520;51.198;4.468;2022-11-02T09:08:08;14.30;99.90
22706;DHT22;11520;51.198;4.468;2022-11-02T09:10:35;14.40;99.90
22706;DHT22;11520;51.198;4.468;2022-11-02T09:13:05;14.50;99.90
22706;DHT22;11520;51.198;4.468;2022-11-02T09:15:33;14.90;99.90
22706;DHT22;11520;51.198;4.468;2022-11-02T09:17:59;15.50;99.90
22706;DHT22;11520;51.198;4.468;2022-11-02T09:20:25;16.60;99.90
22706;DHT22;11520;51.198;4.468;2022-11-02T09:22:50;17.30;99.90
22706;DHT22;11520;51.198;4.468;2022-11-02T09:25:16;17.70;99.90
22706;DHT22;11520;51.198;4.468;2022-11-02T09:27:42;18.50;99.90
22706;DHT22;11520;51.198;4.468;2022-11-02T09:30:09;18.70;99.90
22706;DHT22;11520;51.198;4.468;2022-11-02T09:32:36;19.50;99.90
22706;DHT22;11520;51.198;4.468;2022-11-02T09:35:05;20.30;99.90
22706;DHT22;11520;51.198;4.468;2022-11-02T09:37:31;21.60;99.90
22706;DHT22;11520;51.198;4.468;2022-11-02T09:39:58;20.90;99.90
22706;DHT22;11520;51.198;4.468;2022-11-02T09:45:20;21.60;99.90
22706;DHT22;11520;51.198;4.468;2022-11-02T09:48:11;21.50;99.90
22706;DHT22;11520;51.198;4.468;2022-11-02T09:50:54;21.50;99.90
22706;DHT22;11520;51.198;4.468;2022-11-02T09:53:35;21.50;99.90
22706;DHT22;11520;51.198;4.468;2022-11-02T09:56:06;21.30;99.90
22706;DHT22;11520;51.198;4.468;2022-11-02T09:58:36;21.10;99.90
22706;DHT22;11520;51.198;4.468;2022-11-02T10:01:40;21.60;99.90
22706;DHT22;11520;51.198;4.468;2022-11-02T10:07:05;22.40;99.90
22706;DHT22;11520;51.198;4.468;2022-11-02T10:12:36;22.80;99.90
22706;DHT22;11520;51.198;4.468;2022-11-02T10:15:07;22.90;99.90
22706;DHT22;11520;51.198;4.468;2022-11-02T10:17:37;22.90;99.90
22706;DHT22;11520;51.198;4.468;2022-11-02T10:20:15;23.10;99.90
22706;DHT22;11520;51.198;4.468;2022-11-02T10:22:44;23.50;99.90
22706;DHT22;11520;51.198;4.468;2022-11-02T10:25:14;24.40;99.90
22706;DHT22;11520;51.198;4.468;2022-11-02T10:27:42;24.50;99.20
22706;DHT22;11520;51.198;4.468;2022-11-02T10:30:16;24.70;97.40
22706;DHT22;11520;51.198;4.468;2022-11-02T10:32:44;24.90;96.60
22706;DHT22;11520;51.198;4.468;2022-11-02T10:35:36;25.00;96.00
22706;DHT22;11520;51.198;4.468;2022-11-02T10:52:09;24.80;94.10
22706;DHT22;11520;51.198;4.468;2022-11-02T10:54:37;23.90;94.80
22706;DHT22;11520;51.198;4.468;2022-11-02T10:57:13;23.10;97.00
22706;DHT22;11520;51.198;4.468;2022-11-02T10:59:39;23.30;97.60
22706;DHT22;11520;51.198;4.468;2022-11-02T11:02:13;23.40;96.70
22706;DHT22;11520;51.198;4.468;2022-11-02T11:04:40;22.70;97.60
22706;DHT22;11520;51.198;4.468;2022-11-02T11:07:12;22.40;98.50
22706;DHT22;11520;51.198;4.468;2022-11-02T11:09:55;21.90;99.80
22706;DHT22;11520;51.198;4.468;2022-11-02T11:15:21;21.30;99.90
22706;DHT22;11520;51.198;4.468;2022-11-02T11:17:47;20.90;99.90
22706;DHT22;11520;51.198;4.468;2022-11-02T11:20:43;20.50;99.90
22706;DHT22;11520;51.198;4.468;2022-11-02T11:31:10;22.40;99.90
22706;DHT22;11520;51.198;4.468;2022-11-02T11:33:56;21.90;99.90
22706;DHT22;11520;51.198;4.468;2022-11-02T11:36:33;21.60;99.90
22706;DHT22;11520;51.198;4.468;2022-11-02T11:39:06;21.50;99.90
22706;DHT22;11520;51.198;4.468;2022-11-02T11:41:46;21.40;99.90
22706;DHT22;11520;51.198;4.468;2022-11-02T11:44:14;21.30;99.90
22706;DHT22;11520;51.198;4.468;2022-11-02T11:46:46;21.30;99.90
22706;DHT22;11520;51.198;4.468;2022-11-02T11:49:23;21.00;99.90
22706;DHT22;11520;51.198;4.468;2022-11-02T11:51:51;20.70;99.90
22706;DHT22;11520;51.198;4.468;2022-11-02T11:54:27;20.60;99.90
22706;DHT22;11520;51.198;4.468;2022-11-02T11:57:29;20.60;99.90
22706;DHT22;11520;51.198;4.468;2022-11-02T11:59:57;20.20;99.90
22706;DHT22;11520;51.198;4.468;2022-11-02T12:02:35;20.60;99.90
22706;DHT22;11520;51.198;4.468;2022-11-02T12:18:47;18.70;99.90
22706;DHT22;11520;51.198;4.468;2022-11-02T12:21:33;18.50;99.90
22706;DHT22;11520;51.198;4.468;2022-11-02T12:24:11;18.60;99.90
22706;DHT22;11520;51.198;4.468;2022-11-02T12:27:06;18.60;99.90
22706;DHT22;11520;51.198;4.468;2022-11-02T12:29:56;18.30;99.90
22706;DHT22;11520;51.198;4.468;2022-11-02T12:32:31;18.40;99.90
22706;DHT22;11520;51.198;4.468;2022-11-02T12:38:02;18.50;99.90
22706;DHT22;11520;51.198;4.468;2022-11-02T12:46:27;18.10;99.90
22706;DHT22;11520;51.198;4.468;2022-11-02T12:55:04;17.80;99.90
22706;DHT22;11520;51.198;4.468;2022-11-02T12:57:40;17.70;99.90
22706;DHT22;11520;51.198;4.468;2022-11-02T13:00:21;17.60;99.90
22706;DHT22;11520;51.198;4.468;2022-11-02T13:03:11;17.60;99.90
22706;DHT22;11520;51.198;4.468;2022-11-02T13:05:48;17.60;99.90
22706;DHT22;11520;51.198;4.468;2022-11-02T13:08:20;17.70;99.90
22706;DHT22;11520;51.198;4.468;2022-11-02T13:10:52;17.60;99.90
22706;DHT22;11520;51.198;4.468;2022-11-02T13:13:46;17.70;99.90
22706;DHT22;11520;51.198;4.468;2022-11-02T13:16:16;17.70;99.90
22706;DHT22;11520;51.198;4.468;2022-11-02T13:18:49;17.60;99.90
22706;DHT22;11520;51.198;4.468;2022-11-02T13:21:45;17.50;99.90
22706;DHT22;11520;51.198;4.468;2022-11-02T13:24:17;17.40;99.90
22706;DHT22;11520;51.198;4.468;2022-11-02T13:26:44;17.50;99.90
22706;DHT22;11520;51.198;4.468;2022-11-02T13:31:44;17.40;99.90
22706;DHT22;11520;51.198;4.468;2022-11-02T13:34:14;17.20;99.90
22706;DHT22;11520;51.198;4.468;2022-11-02T13:36:43;17.10;99.90
22706;DHT22;11520;51.198;4.468;2022-11-02T13:39:25;17.00;99.90
22706;DHT22;11520;51.198;4.468;2022-11-02T13:48:39;16.70;99.90
22706;DHT22;11520;51.198;4.468;2022-11-02T13:50:43;16.50;99.90
22706;DHT22;11520;51.198;4.468;2022-11-02T13:53:27;16.40;99.90
22706;DHT22;11520;51.198;4.468;2022-11-02T13:55:58;16.30;99.90
22706;DHT22;11520;51.198;4.468;2022-11-02T13:58:36;16.20;99.90
22706;DHT22;11520;51.198;4.468;2022-11-02T14:01:07;16.20;99.90
22706;DHT22;11520;51.198;4.468;2022-11-02T14:06:32;16.20;99.90
22706;DHT22;11520;51.198;4.468;2022-11-02T14:09:06;16.10;99.90
22706;DHT22;11520;51.198;4.468;2022-11-02T14:26:59;15.90;99.90
22706;DHT22;11520;51.198;4.468;2022-11-02T14:29:46;15.90;99.90
22706;DHT22;11520;51.198;4.468;2022-11-02T14:32:27;15.90;99.90
22706;DHT22;11520;51.198;4.468;2022-11-02T14:38:18;15.80;99.90
22706;DHT22;11520;51.198;4.468;2022-11-02T14:46:11;15.70;99.90
22706;DHT22;11520;51.198;4.468;2022-11-02T14:48:50;15.70;99.90
22706;DHT22;11520;51.198;4.468;2022-11-02T14:51:20;15.60;99.90
22706;DHT22;11520;51.198;4.468;2022-11-02T14:53:48;15.60;99.90
22706;DHT22;11520;51.198;4.468;2022-11-02T14:56:22;15.60;99.90
22706;DHT22;11520;51.198;4.468;2022-11-02T14:58:53;15.50;99.90
22706;DHT22;11520;51.198;4.468;2022-11-02T15:01:21;15.50;99.90
22706;DHT22;11520;51.198;4.468;2022-11-02T15:03:48;15.50;99.90
22706;DHT22;11520;51.198;4.468;2022-11-02T15:06:21;15.50;99.90
22706;DHT22;11520;51.198;4.468;2022-11-02T15:08:55;15.40;99.90
22706;DHT22;11520;51.198;4.468;2022-11-02T15:11:44;15.30;99.90
22706;DHT22;11520;51.198;4.468;2022-11-02T15:20:19;15.30;99.90
22706;DHT22;11520;51.198;4.468;2022-11-02T15:22:41;15.20;99.90
22706;DHT22;11520;51.198;4.468;2022-11-02T15:27:45;15.30;99.90
22706;DHT22;11520;51.198;4.468;2022-11-02T15:30:15;15.30;99.90
22706;DHT22;11520;51.198;4.468;2022-11-02T15:33:04;15.20;99.90
22706;DHT22;11520;51.198;4.468;2022-11-02T15:35:36;15.20;99.90
22706;DHT22;11520;51.198;4.468;2022-11-02T15:38:06;15.20;99.90
22706;DHT22;11520;51.198;4.468;2022-11-02T15:40:53;15.10;99.90
22706;DHT22;11520;51.198;4.468;2022-11-02T15:43:45;15.00;99.90
22706;DHT22;11520;51.198;4.468;2022-11-02T15:46:49;14.90;99.90
22706;DHT22;11520;51.198;4.468;2022-11-02T15:52:14;14.80;99.90
22706;DHT22;11520;51.198;4.468;2022-11-02T15:55:15;14.80;99.90
22706;DHT22;11520;51.198;4.468;2022-11-02T15:57:51;14.70;99.90
22706;DHT22;11520;51.198;4.468;2022-11-02T16:00:19;14.60;99.90
22706;DHT22;11520;51.198;4.468;2022-11-02T16:02:51;14.60;99.90
22706;DHT22;11520;51.198;4.468;2022-11-02T16:05:32;14.60;99.90
22706;DHT22;11520;51.198;4.468;2022-11-02T16:08:33;14.50;99.90
22706;DHT22;11520;51.198;4.468;2022-11-02T16:11:16;14.50;99.90
22706;DHT22;11520;51.198;4.468;2022-11-02T16:13:46;14.40;99.90
22706;DHT22;11520;51.198;4.468;2022-11-02T16:16:14;14.30;99.90
22706;DHT22;11520;51.198;4.468;2022-11-02T16:18:42;14.30;99.90
22706;DHT22;11520;51.198;4.468;2022-11-02T16:21:16;14.20;99.90
22706;DHT22;11520;51.198;4.468;2022-11-02T16:23:54;14.20;99.90
22706;DHT22;11520;51.198;4.468;2022-11-02T16:26:29;14.20;99.90
22706;DHT22;11520;51.198;4.468;2022-11-02T16:28:59;14.10;99.90
22706;DHT22;11520;51.198;4.468;2022-11-02T16:31:26;14.10;99.90
22706;DHT22;11520;51.198;4.468;2022-11-02T16:34:20;14.10;99.90
22706;DHT22;11520;51.198;4.468;2022-11-02T16:36:46;14.00;99.90
22706;DHT22;11520;51.198;4.468;2022-11-02T16:39:21;14.00;99.90
22706;DHT22;11520;51.198;4.468;2022-11-02T16:41:55;14.00;99.90
22706;DHT22;11520;51.198;4.468;2022-11-02T16:44:31;13.90;99.90
22706;DHT22;11520;51.198;4.468;2022-11-02T16:46:59;13.90;99.90
22706;DHT22;11520;51.198;4.468;2022-11-02T16:54:42;13.80;99.90
22706;DHT22;11520;51.198;4.468;2022-11-02T16:57:18;13.70;99.90
22706;DHT22;11520;51.198;4.468;2022-11-02T16:59:52;13.70;99.90
22706;DHT22;11520;51.198;4.468;2022-11-02T17:02:28;13.70;99.90
22706;DHT22;11520;51.198;4.468;2022-11-02T17:04:56;13.60;99.90
22706;DHT22;11520;51.198;4.468;2022-11-02T17:07:32;13.60;99.90
22706;DHT22;11520;51.198;4.468;2022-11-02T17:10:01;13.60;99.90
22706;DHT22;11520;51.198;4.468;2022-11-02T17:12:36;13.60;99.90
22706;DHT22;11520;51.198;4.468;2022-11-02T17:15:19;13.60;99.90
22706;DHT22;11520;51.198;4.468;2022-11-02T17:17:46;13.60;99.90
22706;DHT22;11520;51.198;4.468;2022-11-02T17:27:51;13.50;99.90
22706;DHT22;11520;51.198;4.468;2022-11-02T17:33:06;13.60;99.90
22706;DHT22;11520;51.198;4.468;2022-11-02T17:35:32;13.60;99.90
22706;DHT22;11520;51.198;4.468;2022-11-02T17:37:58;13.60;99.90
22706;DHT22;11520;51.198;4.468;2022-11-02T17:40:24;13.60;99.90
22706;DHT22;11520;51.198;4.468;2022-11-02T17:42:50;13.60;99.90
22706;DHT22;11520;51.198;4.468;2022-11-02T17:45:33;13.60;99.90
22706;DHT22;11520;51.198;4.468;2022-11-02T17:48:02;13.60;99.90
22706;DHT22;11520;51.198;4.468;2022-11-02T17:50:29;13.60;99.90
22706;DHT22;11520;51.198;4.468;2022-11-02T17:52:59;13.60;99.90
22706;DHT22;11520;51.198;4.468;2022-11-02T17:55:29;13.60;99.90
22706;DHT22;11520;51.198;4.468;2022-11-02T17:58:03;13.60;99.90
22706;DHT22;11520;51.198;4.468;2022-11-02T18:00:29;13.50;99.90
22706;DHT22;11520;51.198;4.468;2022-11-02T18:02:57;13.50;99.90
22706;DHT22;11520;51.198;4.468;2022-11-02T18:07:50;13.50;99.90
22706;DHT22;11520;51.198;4.468;2022-11-02T18:10:45;13.40;99.90
22706;DHT22;11520;51.198;4.468;2022-11-02T18:13:16;13.50;99.90
22706;DHT22;11520;51.198;4.468;2022-11-02T18:15:42;13.40;99.90
22706;DHT22;11520;51.198;4.468;2022-11-02T18:18:11;13.40;99.90
22706;DHT22;11520;51.198;4.468;2022-11-02T18:20:39;13.40;99.90
22706;DHT22;11520;51.198;4.468;2022-11-02T18:23:06;13.40;99.90
22706;DHT22;11520;51.198;4.468;2022-11-02T18:25:38;13.40;99.90
22706;DHT22;11520;51.198;4.468;2022-11-02T18:28:06;13.40;99.90
22706;DHT22;11520;51.198;4.468;2022-11-02T18:30:34;13.40;99.90
22706;DHT22;11520;51.198;4.468;2022-11-02T18:33:01;13.30;99.90